createdAt,value
2023-10-08T00:00:43.463Z,76.7
2023-10-08T00:01:58.140Z,76.6
2023-10-08T00:03:12.801Z,76.7
2023-10-08T00:04:27.491Z,76.7
2023-10-08T00:05:42.153Z,76.8
2023-10-08T00:06:56.830Z,76.7
2023-10-08T00:08:11.503Z,76.7
2023-10-08T00:09:25.453Z,76.8
2023-10-08T00:10:40.124Z,76.9
2023-10-08T00:11:54.778Z,77.1
2023-10-08T00:13:09.458Z,77.1
2023-10-08T00:14:24.134Z,77.1
2023-10-08T00:16:53.472Z,77.1
2023-10-08T00:18:08.162Z,77.2
2023-10-08T00:20:37.501Z,77.9
2023-10-08T00:21:52.172Z,78.3
2023-10-08T00:23:06.851Z,79
2023-10-08T00:24:21.510Z,79.3
2023-10-08T00:26:51.002Z,79.5
2023-10-08T00:28:05.000Z,79.8
2023-10-08T00:29:19.659Z,80.3
2023-10-08T00:34:17.619Z,81.7
2023-10-08T00:35:32.299Z,82.3
2023-10-08T00:36:46.973Z,82.3
2023-10-08T00:38:01.638Z,82.4
2023-10-08T00:39:16.325Z,82.3
2023-10-08T00:40:31.002Z,82.7
2023-10-08T00:41:45.667Z,83.3
2023-10-08T00:44:15.007Z,83.5
2023-10-08T00:45:29.680Z,83.6
2023-10-08T00:47:59.024Z,84
2023-10-08T00:49:12.975Z,84.1
2023-10-08T00:50:27.649Z,84.1
2023-10-08T00:54:11.675Z,84.9
2023-10-08T00:57:55.676Z,85.2
2023-10-08T00:59:10.366Z,85.3
2023-10-08T01:00:25.034Z,85.3
2023-10-08T01:01:39.707Z,85.3
2023-10-08T01:02:54.368Z,85.5
2023-10-08T01:05:23.716Z,85.8
2023-10-08T01:06:37.682Z,85.9
2023-10-08T01:07:52.348Z,85.9
2023-10-08T01:10:21.681Z,86.3
2023-10-08T01:11:36.352Z,86.1
2023-10-08T01:12:51.033Z,86.3
2023-10-08T01:14:05.698Z,86.3
2023-10-08T01:15:20.381Z,86.6
2023-10-08T01:16:35.055Z,86.7
2023-10-08T01:19:04.389Z,86.4
2023-10-08T01:20:19.067Z,86.7
2023-10-08T01:22:48.423Z,87.2
2023-10-08T01:24:02.360Z,87.5
2023-10-08T01:25:17.042Z,87.7
2023-10-08T01:26:31.705Z,88.1
2023-10-08T01:27:46.384Z,88.5
2023-10-08T01:31:30.395Z,90.7
2023-10-08T01:32:45.066Z,90.9
2023-10-08T01:33:59.741Z,91.6
2023-10-08T01:36:29.024Z,92.2
2023-10-08T01:40:11.789Z,93.2
2023-10-08T01:41:25.394Z,93.9
2023-10-08T01:42:39.855Z,94.4
2023-10-08T01:43:54.330Z,93.9
2023-10-08T01:45:08.795Z,92.4
2023-10-08T01:46:23.253Z,92.7
2023-10-08T01:47:37.722Z,93.3
2023-10-08T01:48:52.192Z,94.1
2023-10-08T01:50:06.668Z,94.9
2023-10-08T01:51:21.117Z,95.3
2023-10-08T01:52:35.583Z,95.8
2023-10-08T01:53:50.052Z,96
2023-10-08T01:55:04.529Z,96.1
2023-10-08T01:56:18.127Z,96.7
2023-10-08T01:57:32.712Z,96.6
2023-10-08T02:00:01.662Z,97.1
2023-10-08T02:01:16.124Z,97.3
2023-10-08T02:02:30.593Z,98
2023-10-08T02:03:45.059Z,97.2
2023-10-08T02:04:59.513Z,96.9
2023-10-08T02:06:13.980Z,97.4
2023-10-08T02:07:28.453Z,97.1
2023-10-08T02:09:57.393Z,96.2
2023-10-08T02:11:11.997Z,96.5
2023-10-08T02:12:26.466Z,96.9
2023-10-08T02:13:41.050Z,96.7
2023-10-08T02:14:55.515Z,96.4
2023-10-08T02:16:09.994Z,96.4
2023-10-08T02:18:38.925Z,96.8
2023-10-08T02:19:53.399Z,97
2023-10-08T02:22:22.312Z,96.3
2023-10-08T02:24:51.265Z,96.8
2023-10-08T02:26:05.718Z,97.2
2023-10-08T02:27:20.196Z,97.3
2023-10-08T02:28:34.653Z,97.5
2023-10-08T02:31:03.594Z,98.2
2023-10-08T02:32:18.047Z,98.3
2023-10-08T02:34:46.993Z,98.1
2023-10-08T02:37:15.919Z,98
2023-10-08T02:39:43.985Z,97.6
2023-10-08T02:40:58.439Z,97.7
2023-10-08T02:42:12.915Z,97.8
2023-10-08T02:43:27.387Z,97.9
2023-10-08T02:44:41.858Z,97.7
2023-10-08T02:47:10.781Z,98.6
2023-10-08T02:49:39.724Z,98.1
2023-10-08T02:50:54.316Z,98.1
2023-10-08T02:52:08.783Z,98.2
2023-10-08T02:54:37.723Z,98.3
2023-10-08T02:55:52.188Z,98.6
2023-10-08T02:57:06.661Z,98.3
2023-10-08T02:59:34.719Z,98.6
2023-10-08T03:00:49.176Z,98.4
2023-10-08T03:02:03.646Z,98.1
2023-10-08T03:04:32.578Z,97.8
2023-10-08T03:05:47.053Z,97.2
2023-10-08T03:07:01.518Z,97.1
2023-10-08T03:09:30.451Z,97.4
2023-10-08T03:10:44.904Z,97.5
2023-10-08T03:11:59.390Z,97.4
2023-10-08T03:14:28.306Z,98
2023-10-08T03:15:42.777Z,97.9
2023-10-08T03:16:57.255Z,98.1
2023-10-08T03:19:25.305Z,97.4
2023-10-08T03:20:39.780Z,97.8
2023-10-08T03:21:54.243Z,97.6
2023-10-08T03:24:23.170Z,98
2023-10-08T03:25:37.639Z,98.2
2023-10-08T03:26:52.099Z,98.3
2023-10-08T03:28:06.578Z,98.8
2023-10-08T03:29:21.037Z,98.7
2023-10-08T03:30:35.507Z,98.4
2023-10-08T03:31:49.986Z,98.4
2023-10-08T03:34:18.903Z,98.7
2023-10-08T03:35:33.386Z,98.7
2023-10-08T03:36:47.853Z,98.6
2023-10-08T03:39:15.905Z,98.8
2023-10-08T03:40:30.361Z,98.9
2023-10-08T03:41:44.838Z,98.9
2023-10-08T03:44:13.766Z,98.9
2023-10-08T03:45:28.223Z,98.8
2023-10-08T03:46:42.705Z,99
2023-10-08T03:49:11.623Z,98.5
2023-10-08T03:51:40.558Z,96.4
2023-10-08T03:54:09.493Z,95.8
2023-10-08T03:55:24.093Z,95.8
2023-10-08T03:56:38.553Z,96.2
2023-10-08T03:59:06.604Z,96
2023-10-08T04:00:21.205Z,96.1
2023-10-08T04:01:35.665Z,96.7
2023-10-08T04:02:50.130Z,97.2
2023-10-08T04:05:19.064Z,97.5
2023-10-08T04:06:33.538Z,97.8
2023-10-08T04:09:02.473Z,98.1
2023-10-08T04:10:16.936Z,98.2
2023-10-08T04:11:31.396Z,98.3
2023-10-08T04:14:00.329Z,98.7
2023-10-08T04:15:14.804Z,99
2023-10-08T04:16:29.267Z,98.9
2023-10-08T04:17:43.862Z,98.6
2023-10-08T04:18:58.326Z,98.2
2023-10-08T04:20:12.781Z,98.3
2023-10-08T04:21:27.265Z,98.7
2023-10-08T04:23:56.194Z,98.5
2023-10-08T04:26:25.131Z,98.9
2023-10-08T04:27:39.600Z,99
2023-10-08T04:28:54.060Z,98.8
2023-10-08T04:30:08.529Z,99.1
2023-10-08T04:31:22.988Z,98.8
2023-10-08T04:33:51.918Z,99.2
2023-10-08T04:35:06.389Z,99.4
2023-10-08T04:36:20.862Z,99.5
2023-10-08T04:38:49.785Z,99.5
2023-10-08T04:40:04.260Z,99.8
2023-10-08T04:41:18.718Z,99.6
2023-10-08T04:42:32.321Z,99.6
2023-10-08T04:43:46.776Z,99.8
2023-10-08T04:46:15.714Z,99.8
2023-10-08T04:48:44.639Z,99.7
2023-10-08T04:49:59.110Z,99.8
2023-10-08T04:51:13.591Z,100
2023-10-08T04:53:42.518Z,99.8
2023-10-08T04:54:56.978Z,99.7
2023-10-08T04:56:11.452Z,99.8
2023-10-08T04:58:40.331Z,99.8
2023-10-08T05:01:09.267Z,99.7
2023-10-08T05:03:38.113Z,99.9
2023-10-08T05:04:52.528Z,99.9
2023-10-08T05:06:06.932Z,99.6
2023-10-08T05:07:21.472Z,99.7
2023-10-08T05:08:35.901Z,99.7
2023-10-08T05:09:50.353Z,99.8
2023-10-08T05:11:04.780Z,99.8
2023-10-08T05:13:32.726Z,99.4
2023-10-08T05:16:01.561Z,99.5
2023-10-08T05:17:15.983Z,99.7
2023-10-08T05:18:30.383Z,99.7
2023-10-08T05:19:44.796Z,99.6
2023-10-08T05:20:59.224Z,99.4
2023-10-08T05:23:28.037Z,99.2
2023-10-08T05:24:42.459Z,99.2
2023-10-08T05:25:56.870Z,99
2023-10-08T05:27:11.280Z,98.8
2023-10-08T05:28:25.705Z,99
2023-10-08T05:29:40.104Z,99.3
2023-10-08T05:30:54.530Z,99.4
2023-10-08T05:33:23.347Z,99.1
2023-10-08T05:34:37.891Z,99.4
2023-10-08T05:35:52.293Z,99.2
2023-10-08T05:37:06.711Z,99.3
2023-10-08T05:38:21.115Z,99.5
2023-10-08T05:40:49.947Z,99.8
2023-10-08T05:43:18.765Z,99.9
2023-10-08T05:44:33.187Z,100
2023-10-08T05:45:47.597Z,100
2023-10-08T05:49:30.845Z,98.7
2023-10-08T05:50:45.245Z,98.8
2023-10-08T05:53:13.195Z,99.3
2023-10-08T05:54:27.610Z,99.3
2023-10-08T05:55:42.038Z,99.2
2023-10-08T05:58:10.851Z,99.1
2023-10-08T05:59:25.272Z,99.2
2023-10-08T06:00:39.687Z,98.9
2023-10-08T06:01:54.089Z,96
2023-10-08T06:04:22.924Z,92.9
2023-10-08T06:05:37.327Z,94
2023-10-08T06:06:51.744Z,91.8
2023-10-08T06:08:06.093Z,90.9
2023-10-08T06:09:20.576Z,91.8
2023-10-08T06:10:34.980Z,90.9
2023-10-08T06:13:02.939Z,91.3
2023-10-08T06:14:17.362Z,89
2023-10-08T06:15:31.763Z,89.9
2023-10-08T06:18:00.596Z,89.6
2023-10-08T06:19:15.017Z,89.8
2023-10-08T06:20:29.428Z,89.1
2023-10-08T06:22:58.240Z,91.2
2023-10-08T06:24:12.651Z,92.7
2023-10-08T06:25:27.065Z,93.8
2023-10-08T06:27:55.895Z,94.5
2023-10-08T06:29:10.308Z,94.6
2023-10-08T06:30:24.720Z,94.4
2023-10-08T06:32:52.676Z,94.3
2023-10-08T06:34:07.093Z,94.4
2023-10-08T06:35:21.507Z,94.2
2023-10-08T06:37:50.337Z,94.7
2023-10-08T06:40:19.155Z,95
2023-10-08T06:42:47.991Z,95
2023-10-08T06:44:02.390Z,95.2
2023-10-08T06:45:16.816Z,95.5
2023-10-08T06:47:45.000Z,94.9
2023-10-08T06:49:00.171Z,94.8
2023-10-08T06:50:14.579Z,94.3
2023-10-08T06:52:43.410Z,93.8
2023-10-08T06:53:57.829Z,94
2023-10-08T06:55:12.231Z,94.4
2023-10-08T06:56:25.769Z,94.2
2023-10-08T06:57:40.180Z,94.6
2023-10-08T06:58:54.592Z,94.2
2023-10-08T07:00:09.015Z,95.1
2023-10-08T07:02:37.829Z,95.3
2023-10-08T07:03:52.243Z,95.8
2023-10-08T07:05:06.665Z,95.6
2023-10-08T07:07:35.486Z,96
2023-10-08T07:08:49.903Z,96.1
2023-10-08T07:10:04.325Z,96.2
2023-10-08T07:12:33.148Z,97
2023-10-08T07:13:47.558Z,97.2
2023-10-08T07:15:01.967Z,97.1
2023-10-08T07:16:16.507Z,97.2
2023-10-08T07:17:30.912Z,97.1
2023-10-08T07:19:59.735Z,96.7
2023-10-08T07:23:42.980Z,96.9
2023-10-08T07:24:57.395Z,97
2023-10-08T07:26:11.810Z,96.6
2023-10-08T07:27:26.217Z,96.6
2023-10-08T07:28:40.586Z,96.3
2023-10-08T07:29:54.992Z,96.5
2023-10-08T07:32:23.807Z,96.7
2023-10-08T07:33:38.340Z,96.8
2023-10-08T07:34:52.766Z,96.7
2023-10-08T07:36:07.173Z,96.1
2023-10-08T07:37:21.597Z,95.8
2023-10-08T07:38:36.004Z,95.3
2023-10-08T07:39:50.412Z,95.4
2023-10-08T07:42:19.231Z,95.1
2023-10-08T07:43:33.646Z,95.4
2023-10-08T07:46:02.483Z,95.5
2023-10-08T07:47:16.895Z,95.9
2023-10-08T07:48:31.306Z,95.7
2023-10-08T07:49:45.715Z,96.1
2023-10-08T07:51:00.140Z,96.4
2023-10-08T07:52:14.547Z,96.4
2023-10-08T07:53:28.955Z,96.1
2023-10-08T07:54:43.379Z,96.2
2023-10-08T07:55:57.783Z,96.2
2023-10-08T07:57:12.207Z,96.4
2023-10-08T07:58:26.621Z,95.8
2023-10-08T07:59:41.023Z,95.9
2023-10-08T08:02:08.968Z,95
2023-10-08T08:03:23.379Z,95.3
2023-10-08T08:04:37.798Z,95.5
2023-10-08T08:05:52.206Z,95.1
2023-10-08T08:07:06.632Z,94.8
2023-10-08T08:08:21.044Z,94.2
2023-10-08T08:09:35.452Z,94.7
2023-10-08T08:10:49.994Z,94.6
2023-10-08T08:12:04.399Z,93.9
2023-10-08T08:13:18.823Z,94.4
2023-10-08T08:14:32.374Z,94.4
2023-10-08T08:17:00.324Z,94.1
2023-10-08T08:18:14.739Z,94.2
2023-10-08T08:19:29.145Z,94.5
2023-10-08T08:20:43.561Z,94.1
2023-10-08T08:21:57.965Z,94.6
2023-10-08T08:23:12.394Z,94.9
2023-10-08T08:25:41.222Z,93.5
2023-10-08T08:26:55.628Z,93.7
2023-10-08T08:28:10.043Z,93.4
2023-10-08T08:29:24.460Z,93.1
2023-10-08T08:31:53.277Z,93.3
2023-10-08T08:33:07.694Z,92.6
2023-10-08T08:34:21.234Z,93
2023-10-08T08:35:35.652Z,93.4
2023-10-08T08:36:50.068Z,93.5
2023-10-08T08:38:04.481Z,93.8
2023-10-08T08:39:18.016Z,94
2023-10-08T08:40:32.435Z,94.4
2023-10-08T08:41:46.851Z,94.4
2023-10-08T08:43:01.254Z,93.6
2023-10-08T08:44:15.678Z,93.4
2023-10-08T08:46:44.501Z,92
2023-10-08T08:47:58.901Z,92.6
2023-10-08T08:49:13.328Z,92
2023-10-08T08:50:27.724Z,90.5
2023-10-08T08:52:56.570Z,90.3
2023-10-08T08:54:10.978Z,89.8
2023-10-08T08:55:24.498Z,90.7
2023-10-08T08:56:38.918Z,89.6
2023-10-08T08:57:53.338Z,88.6
2023-10-08T09:00:22.160Z,89.6
2023-10-08T09:01:36.572Z,89.5
2023-10-08T09:02:50.992Z,90.2
2023-10-08T09:04:05.393Z,91.3
2023-10-08T09:05:19.809Z,88.8
2023-10-08T09:06:34.222Z,88.8
2023-10-08T09:07:48.643Z,89.2
2023-10-08T09:09:03.043Z,89.8
2023-10-08T09:10:17.467Z,89.3
2023-10-08T09:11:31.997Z,88.2
2023-10-08T09:12:46.422Z,89.4
2023-10-08T09:14:00.830Z,87.2
2023-10-08T09:15:15.236Z,88.1
2023-10-08T09:16:29.657Z,87.7
2023-10-08T09:17:44.066Z,87
2023-10-08T09:18:58.622Z,88.3
2023-10-08T09:21:27.436Z,88.8
2023-10-08T09:22:40.972Z,88.9
2023-10-08T09:23:55.389Z,88.2
2023-10-08T09:26:24.220Z,87.4
2023-10-08T09:27:38.633Z,88.4
2023-10-08T09:28:53.038Z,87.6
2023-10-08T09:31:21.870Z,88.6
2023-10-08T09:32:36.291Z,87.4
2023-10-08T09:33:50.687Z,87.6
2023-10-08T09:35:05.121Z,87
2023-10-08T09:36:19.531Z,85.9
2023-10-08T09:37:34.068Z,87.3
2023-10-08T09:38:48.495Z,87.2
2023-10-08T09:40:02.895Z,85.1
2023-10-08T09:41:17.326Z,84.3
2023-10-08T09:42:31.727Z,86.1
2023-10-08T09:43:46.144Z,86.4
2023-10-08T09:45:00.694Z,86.2
2023-10-08T09:46:15.239Z,85.8
2023-10-08T09:47:29.656Z,84.2
2023-10-08T09:51:12.895Z,82.2
2023-10-08T09:52:27.297Z,83
2023-10-08T09:53:41.710Z,82.4
2023-10-08T09:54:56.129Z,83.7
2023-10-08T09:56:10.530Z,83.7
2023-10-08T09:57:24.956Z,85.1
2023-10-08T09:58:39.366Z,84.4
2023-10-08T10:01:08.201Z,83.2
2023-10-08T10:02:21.737Z,80.9
2023-10-08T10:04:50.556Z,83.3
2023-10-08T10:06:04.972Z,82
2023-10-08T10:07:19.387Z,82
2023-10-08T10:08:33.788Z,81.8
2023-10-08T10:11:02.619Z,82.2
2023-10-08T10:12:17.036Z,82
2023-10-08T10:13:31.449Z,80.6
2023-10-08T10:16:00.264Z,81.5
2023-10-08T10:17:14.686Z,81.4
2023-10-08T10:18:28.228Z,82.2
2023-10-08T10:20:57.047Z,81.2
2023-10-08T10:22:11.451Z,80.5
2023-10-08T10:23:25.879Z,80.9
2023-10-08T10:27:09.112Z,80.6
2023-10-08T10:28:23.531Z,80.4
2023-10-08T10:30:52.342Z,80
2023-10-08T10:32:06.758Z,80.2
2023-10-08T10:33:21.188Z,80.4
2023-10-08T10:34:35.583Z,80.7
2023-10-08T10:37:04.426Z,80.9
2023-10-08T10:38:17.954Z,81.1
2023-10-08T10:39:32.368Z,80.9
2023-10-08T10:40:46.790Z,80.5
2023-10-08T10:42:01.185Z,80.9
2023-10-08T10:43:15.598Z,80.7
2023-10-08T10:45:44.433Z,79.2
2023-10-08T10:46:58.850Z,78.4
2023-10-08T10:49:27.661Z,78.7
2023-10-08T10:50:42.080Z,78.5
2023-10-08T10:51:56.490Z,77.7
2023-10-08T10:53:10.921Z,77.1
2023-10-08T10:54:25.330Z,77.1
2023-10-08T10:55:38.857Z,77.5
2023-10-08T10:56:53.280Z,77.5
2023-10-08T10:58:07.690Z,77.2
2023-10-08T10:59:22.093Z,77
2023-10-08T11:00:36.521Z,78
2023-10-08T11:01:50.932Z,77.1
2023-10-08T11:04:19.743Z,77.6
2023-10-08T11:05:34.169Z,77.8
2023-10-08T11:06:48.578Z,77.6
2023-10-08T11:08:02.984Z,75.8
2023-10-08T11:09:17.425Z,76.7
2023-10-08T11:10:31.819Z,77
2023-10-08T11:11:46.231Z,77.4
2023-10-08T11:13:00.638Z,77
2023-10-08T11:14:15.057Z,77.4
2023-10-08T11:15:29.466Z,77.5
2023-10-08T11:16:43.889Z,76.9
2023-10-08T11:17:58.294Z,78
2023-10-08T11:20:27.120Z,77.9
2023-10-08T11:21:41.529Z,78.9
2023-10-08T11:22:55.950Z,78.6
2023-10-08T11:24:10.358Z,78.5
2023-10-08T11:25:23.890Z,78.3
2023-10-08T11:26:38.314Z,76.8
2023-10-08T11:30:21.552Z,75.1
2023-10-08T11:31:35.967Z,74.7
2023-10-08T11:32:50.375Z,75.3
2023-10-08T11:34:04.787Z,75
2023-10-08T11:35:19.212Z,75
2023-10-08T11:36:33.613Z,74.9
2023-10-08T11:37:48.024Z,74.8
2023-10-08T11:39:02.441Z,74.7
2023-10-08T11:40:16.850Z,73.7
2023-10-08T11:41:31.267Z,73.2
2023-10-08T11:42:45.804Z,74.1
2023-10-08T11:44:00.228Z,72.6
2023-10-08T11:45:14.624Z,73.2
2023-10-08T11:46:29.046Z,73.4
2023-10-08T11:47:43.463Z,73
2023-10-08T11:48:57.882Z,73.2
2023-10-08T11:50:12.285Z,73.4
2023-10-08T11:51:26.704Z,72.2
2023-10-08T11:53:55.527Z,72.3
2023-10-08T11:55:09.940Z,72.4
2023-10-08T11:56:24.342Z,72.8
2023-10-08T11:57:38.765Z,72.4
2023-10-08T12:00:06.739Z,72.8
2023-10-08T12:01:21.279Z,72.9
2023-10-08T12:02:35.679Z,72.9
2023-10-08T12:05:04.503Z,73.4
2023-10-08T12:06:18.922Z,73
2023-10-08T12:07:33.335Z,73.6
2023-10-08T12:08:47.743Z,73.8
2023-10-08T12:10:02.162Z,73.5
2023-10-08T12:11:16.573Z,73
2023-10-08T12:12:30.980Z,72.6
2023-10-08T12:13:45.396Z,72.3
2023-10-08T12:14:59.817Z,72.7
2023-10-08T12:16:14.227Z,72.9
2023-10-08T12:17:28.635Z,73.2
2023-10-08T12:19:57.474Z,74
2023-10-08T12:21:11.878Z,73.3
2023-10-08T12:22:26.422Z,73.5
2023-10-08T12:23:40.822Z,73
2023-10-08T12:24:55.249Z,73.2
2023-10-08T12:26:09.653Z,73.7
2023-10-08T12:28:38.485Z,73.3
2023-10-08T12:29:52.901Z,73.5
2023-10-08T12:31:07.299Z,73.3
2023-10-08T12:32:21.708Z,73
2023-10-08T12:33:36.127Z,73
2023-10-08T12:34:50.547Z,73.7
2023-10-08T12:36:04.950Z,72.2
2023-10-08T12:37:19.374Z,72
2023-10-08T12:38:33.779Z,72
2023-10-08T12:39:48.197Z,72.2
2023-10-08T12:41:02.604Z,72.1
2023-10-08T12:43:31.444Z,72.8
2023-10-08T12:44:45.851Z,72.8
2023-10-08T12:46:00.268Z,72.7
2023-10-08T12:47:14.683Z,72.9
2023-10-08T12:48:28.201Z,72.5
2023-10-08T12:49:42.618Z,72.5
2023-10-08T12:50:57.043Z,71.9
2023-10-08T12:52:11.444Z,72.1
2023-10-08T12:54:40.275Z,72.3
2023-10-08T12:55:54.700Z,72.5
2023-10-08T12:57:09.113Z,73.2
2023-10-08T12:59:37.931Z,71.5
2023-10-08T13:00:52.338Z,71
2023-10-08T13:02:06.757Z,71.1
2023-10-08T13:03:21.162Z,71
2023-10-08T13:04:35.582Z,70.7
2023-10-08T13:05:49.987Z,70.7
2023-10-08T13:07:04.405Z,70.9
2023-10-08T13:10:47.649Z,69
2023-10-08T13:12:02.055Z,69.5
2023-10-08T13:13:15.593Z,70.4
2023-10-08T13:14:30.002Z,70.8
2023-10-08T13:15:44.427Z,70.3
2023-10-08T13:19:27.656Z,68.3
2023-10-08T13:20:42.088Z,68.5
2023-10-08T13:21:56.493Z,68
2023-10-08T13:23:10.905Z,68.4
2023-10-08T13:24:25.309Z,68.7
2023-10-08T13:25:39.741Z,67.5
2023-10-08T13:26:54.145Z,66.5
2023-10-08T13:33:06.217Z,63.9
2023-10-08T13:34:20.614Z,62.6
2023-10-08T13:35:35.028Z,62.6
2023-10-08T13:36:49.456Z,63.6
2023-10-08T13:38:03.862Z,64
2023-10-08T13:39:18.269Z,64
2023-10-08T13:40:32.682Z,64.8
2023-10-08T13:41:47.108Z,65.7
2023-10-08T13:44:15.936Z,66
2023-10-08T13:45:30.337Z,66.6
2023-10-08T13:47:59.179Z,67.7
2023-10-08T13:49:13.572Z,68.3
2023-10-08T13:50:27.127Z,68.6
2023-10-08T13:51:41.525Z,69
2023-10-08T13:52:55.939Z,69
2023-10-08T13:55:24.775Z,67.5
2023-10-08T13:56:39.180Z,67.4
2023-10-08T13:59:08.019Z,67.2
2023-10-08T14:00:22.429Z,66.7
2023-10-08T14:02:51.251Z,65.2
2023-10-08T14:04:05.666Z,65.1
2023-10-08T14:05:20.084Z,65.3
2023-10-08T14:06:34.615Z,65.3
2023-10-08T14:09:03.443Z,66.3
2023-10-08T14:10:17.842Z,65.8
2023-10-08T14:11:32.265Z,65.2
2023-10-08T14:14:01.085Z,65
2023-10-08T14:15:15.507Z,64.4
2023-10-08T14:16:29.911Z,63.6
2023-10-08T14:17:44.329Z,63.7
2023-10-08T14:18:58.736Z,64.8
2023-10-08T14:20:13.150Z,66
2023-10-08T14:21:27.573Z,66.2
2023-10-08T14:22:41.977Z,66.8
2023-10-08T14:23:56.397Z,67.4
2023-10-08T14:25:09.924Z,67.1
2023-10-08T14:26:24.349Z,66.9
2023-10-08T14:28:53.166Z,66.8
2023-10-08T14:30:07.574Z,66.7
2023-10-08T14:31:22.008Z,67
2023-10-08T14:32:36.416Z,67.5
2023-10-08T14:36:19.646Z,68.7
2023-10-08T14:37:34.065Z,68.9
2023-10-08T14:38:48.468Z,68.9
2023-10-08T14:40:02.896Z,68.8
2023-10-08T14:41:17.308Z,69.4
2023-10-08T14:43:46.119Z,70.2
2023-10-08T14:45:00.545Z,70.2
2023-10-08T14:46:14.954Z,70.1
2023-10-08T14:48:43.774Z,71.3
2023-10-08T14:49:58.202Z,71
2023-10-08T14:51:12.598Z,72.1
2023-10-08T14:52:27.017Z,72.2
2023-10-08T14:53:41.565Z,72.1
2023-10-08T14:54:55.980Z,72
2023-10-08T14:57:24.791Z,72.3
2023-10-08T14:58:39.220Z,72.3
2023-10-08T14:59:53.629Z,72.1
2023-10-08T15:01:08.045Z,72.5
2023-10-08T15:02:22.443Z,72.9
2023-10-08T15:03:36.860Z,72.8
2023-10-08T15:04:51.286Z,72.4
2023-10-08T15:06:05.687Z,73.4
2023-10-08T15:08:34.514Z,72.7
2023-10-08T15:09:48.932Z,73.2
2023-10-08T15:11:03.344Z,72.8
2023-10-08T15:13:32.169Z,73.1
2023-10-08T15:16:00.000Z,71.8
2023-10-08T15:17:14.540Z,71.6
2023-10-08T15:18:28.940Z,71.3
2023-10-08T15:19:43.357Z,70.3
2023-10-08T15:20:57.777Z,70.3
2023-10-08T15:23:26.601Z,70.6
2023-10-08T15:24:41.017Z,70.6
2023-10-08T15:25:55.413Z,71.1
2023-10-08T15:27:09.847Z,71.4
2023-10-08T15:28:24.250Z,71.5
2023-10-08T15:29:38.662Z,71.6
2023-10-08T15:30:53.074Z,71.7
2023-10-08T15:32:07.484Z,72.1
2023-10-08T15:34:36.319Z,73
2023-10-08T15:37:05.133Z,73
2023-10-08T15:38:18.681Z,73.4
2023-10-08T15:39:33.087Z,73.4
2023-10-08T15:40:47.515Z,73.7
2023-10-08T15:42:01.929Z,73.8
2023-10-08T15:43:16.323Z,74.2
2023-10-08T15:44:30.746Z,74.4
2023-10-08T15:46:59.570Z,75
2023-10-08T15:48:13.975Z,75.2
2023-10-08T15:49:28.393Z,75.5
2023-10-08T15:50:42.801Z,75.5
2023-10-08T15:51:57.227Z,75.7
2023-10-08T15:53:11.628Z,75.9
2023-10-08T15:54:26.046Z,76.1
2023-10-08T15:56:54.878Z,77
2023-10-08T15:58:08.403Z,77.3
2023-10-08T15:59:22.821Z,77.4
2023-10-08T16:01:51.661Z,77.9
2023-10-08T16:03:06.067Z,78.2
2023-10-08T16:04:20.480Z,78
2023-10-08T16:05:34.902Z,77.9
2023-10-08T16:06:49.307Z,77.9
2023-10-08T16:08:03.710Z,78
2023-10-08T16:09:18.138Z,78.1
2023-10-08T16:11:46.953Z,78.7
2023-10-08T16:14:15.794Z,78.8
2023-10-08T16:17:59.030Z,79.6
2023-10-08T16:19:13.565Z,79.6
2023-10-08T16:20:27.965Z,79.7
2023-10-08T16:21:42.395Z,80
2023-10-08T16:22:56.790Z,79.7
2023-10-08T16:24:11.204Z,79.8
2023-10-08T16:25:25.625Z,80.1
2023-10-08T16:27:54.443Z,80
2023-10-08T16:29:08.865Z,80.1
2023-10-08T16:30:23.285Z,80.2
2023-10-08T16:31:37.698Z,80.2
2023-10-08T16:32:52.113Z,80.3
2023-10-08T16:34:06.515Z,80.4
2023-10-08T16:37:49.759Z,80.7
2023-10-08T16:39:04.173Z,80.6
2023-10-08T16:40:18.584Z,80.7
2023-10-08T16:42:47.416Z,81.1
2023-10-08T16:44:01.952Z,81
2023-10-08T16:45:16.358Z,81.1
2023-10-08T16:46:30.771Z,81.3
2023-10-08T16:47:45.174Z,81.6
2023-10-08T16:48:59.592Z,82.1
2023-10-08T16:50:14.019Z,82
2023-10-08T16:51:28.432Z,81.9
2023-10-08T16:52:42.846Z,81.8
2023-10-08T16:53:57.251Z,81.6
2023-10-08T16:55:11.660Z,81.6
2023-10-08T16:56:26.068Z,81.7
2023-10-08T16:57:40.486Z,82
2023-10-08T16:58:54.894Z,82.2
2023-10-08T17:01:23.830Z,82.6
2023-10-08T17:05:07.253Z,82.1
2023-10-08T17:07:36.171Z,81.6
2023-10-08T17:08:50.638Z,81.6
2023-10-08T17:10:05.122Z,81.4
2023-10-08T17:11:19.570Z,81.6
2023-10-08T17:12:34.043Z,81.6
2023-10-08T17:13:48.518Z,81.7
2023-10-08T17:15:02.985Z,81.9
2023-10-08T17:16:17.445Z,81.9
2023-10-08T17:18:46.381Z,81.6
2023-10-08T17:20:00.850Z,80.8
2023-10-08T17:22:29.778Z,81.2
2023-10-08T17:23:44.242Z,81.2
2023-10-08T17:26:13.179Z,81.6
2023-10-08T17:27:27.647Z,81.3
2023-10-08T17:28:42.111Z,80.8
2023-10-08T17:29:56.790Z,80.8
2023-10-08T17:31:11.459Z,79.9
2023-10-08T17:32:26.147Z,80.2
2023-10-08T17:34:55.492Z,81.2
2023-10-08T17:36:10.166Z,80.6
2023-10-08T17:37:24.829Z,80.5
2023-10-08T17:39:54.188Z,80.9
2023-10-08T17:41:08.850Z,82
2023-10-08T17:42:22.785Z,82.2
2023-10-08T17:43:37.458Z,82
2023-10-08T17:44:52.145Z,81
2023-10-08T17:46:06.820Z,80.7
2023-10-08T17:48:36.000Z,81.6
2023-10-08T17:49:50.823Z,81.5
2023-10-08T17:51:05.506Z,82
2023-10-08T17:54:49.528Z,81.7
2023-10-08T17:57:18.859Z,81.9
2023-10-08T17:58:33.544Z,81.8
2023-10-08T17:59:48.206Z,81.1
2023-10-08T18:02:17.661Z,81.2
2023-10-08T18:06:01.699Z,82.4
2023-10-08T18:07:16.380Z,80.8
2023-10-08T18:08:31.038Z,80.3
2023-10-08T18:09:45.723Z,80.5
2023-10-08T18:11:00.393Z,80.3
2023-10-08T18:12:15.053Z,80.3
2023-10-08T18:13:29.738Z,80.3
2023-10-08T18:14:44.406Z,80.2
2023-10-08T18:15:59.090Z,80.3
2023-10-08T18:18:28.546Z,80.7
2023-10-08T18:19:43.218Z,81
2023-10-08T18:20:57.897Z,81
2023-10-08T18:22:12.561Z,80.9
2023-10-08T18:23:27.238Z,81.6
2023-10-08T18:24:41.910Z,81.4
2023-10-08T18:25:56.595Z,81.4
2023-10-08T18:28:25.937Z,81.8
2023-10-08T18:29:40.596Z,81.1
2023-10-08T18:32:09.958Z,81.5
2023-10-08T18:33:24.626Z,82
2023-10-08T18:34:39.294Z,81.1
2023-10-08T18:35:53.248Z,80.8
2023-10-08T18:37:07.901Z,80.6
2023-10-08T18:38:22.580Z,79.9
2023-10-08T18:39:37.266Z,79.9
2023-10-08T18:42:06.607Z,80.8
2023-10-08T18:45:50.625Z,79.8
2023-10-08T18:47:05.291Z,79.8
2023-10-08T18:48:19.972Z,79.8
2023-10-08T18:49:34.633Z,79.8
2023-10-08T18:50:49.322Z,79.7
2023-10-08T18:53:18.658Z,80.5
2023-10-08T18:54:33.327Z,80.8
2023-10-08T18:55:48.009Z,81.4
2023-10-08T18:58:17.365Z,82.8
2023-10-08T18:59:31.303Z,83.2
2023-10-08T19:00:45.976Z,83.6
2023-10-08T19:02:00.652Z,84.2
2023-10-08T19:03:15.287Z,84.4
2023-10-08T19:04:29.993Z,84.3
2023-10-08T19:06:59.342Z,84.4
2023-10-08T19:08:14.011Z,84.4
2023-10-08T19:09:28.694Z,84.6
2023-10-08T19:10:43.366Z,84.8
2023-10-08T19:11:58.029Z,84.9
2023-10-08T19:13:12.719Z,85.1
2023-10-08T19:14:27.379Z,85.2
2023-10-08T19:15:42.048Z,85.5
2023-10-08T19:16:56.852Z,86
2023-10-08T19:19:26.199Z,86.7
2023-10-08T19:20:40.861Z,87.2
2023-10-08T19:21:54.810Z,87.6
2023-10-08T19:24:24.145Z,88
2023-10-08T19:25:38.834Z,88.2
2023-10-08T19:26:53.505Z,87.7
2023-10-08T19:30:37.525Z,87.3
2023-10-08T19:33:06.868Z,87.5
2023-10-08T19:34:21.539Z,87.6
2023-10-08T19:35:36.203Z,87.4
2023-10-08T19:36:50.896Z,87.2
2023-10-08T19:38:05.554Z,87.1
2023-10-08T19:39:20.228Z,86.6
2023-10-08T19:41:49.708Z,85.8
2023-10-08T19:43:04.369Z,85.9
2023-10-08T19:45:33.710Z,85.4
2023-10-08T19:46:48.366Z,85.5
2023-10-08T19:48:03.057Z,85.3
2023-10-08T19:49:17.744Z,85.2
2023-10-08T19:50:32.421Z,85.7
2023-10-08T19:54:16.432Z,86
2023-10-08T19:55:31.096Z,86.1
2023-10-08T19:56:45.741Z,86.3
2023-10-08T19:57:59.716Z,86.4
2023-10-08T19:59:14.396Z,86.6
2023-10-08T20:00:29.065Z,87.2
2023-10-08T20:01:43.751Z,87.7
2023-10-08T20:04:13.082Z,87.6
2023-10-08T20:05:27.760Z,87.6
2023-10-08T20:09:11.781Z,86
2023-10-08T20:10:26.456Z,86.3
2023-10-08T20:11:41.121Z,85.8
2023-10-08T20:12:55.782Z,85.4
2023-10-08T20:14:10.466Z,85.6
2023-10-08T20:15:25.157Z,85.5
2023-10-08T20:16:39.820Z,85.3
2023-10-08T20:17:54.499Z,84.8
2023-10-08T20:20:23.845Z,84.7
2023-10-08T20:21:37.793Z,84.6
2023-10-08T20:22:52.453Z,84.9
2023-10-08T20:26:36.486Z,85.5
2023-10-08T20:27:51.162Z,85.4
2023-10-08T20:29:05.831Z,85.4
2023-10-08T20:31:35.172Z,85.2
2023-10-08T20:32:49.860Z,85.2
2023-10-08T20:34:04.532Z,85.4
2023-10-08T20:35:19.192Z,85.7
2023-10-08T20:37:48.550Z,86.1
2023-10-08T20:40:17.164Z,86.4
2023-10-08T20:41:31.843Z,86.6
2023-10-08T20:42:46.511Z,86.6
2023-10-08T20:44:01.184Z,86.7
2023-10-08T20:46:30.536Z,86.5
2023-10-08T20:47:45.192Z,86.6
2023-10-08T20:51:29.221Z,86.4
2023-10-08T20:52:43.886Z,86.2
2023-10-08T20:55:12.513Z,86.3
2023-10-08T20:57:41.134Z,86
2023-10-08T21:00:10.468Z,86.2